This is the latest recevied weather packets stored in our database for station/object KE8WMS. If no packets are shown the sender has not sent any weather packets the latest 10 day(s).
| Time | Temp. | Humidity | Pressure | Rain* | Wind** | Luminosity | Snow |
|---|---|---|---|---|---|---|---|
| 1787854573 | 26.11° C | 71% | 1010.3 hPa | 0 mm | - | 677 W/m² | - |
| 1787854267 | 26.11° C | 71% | 1010.3 hPa | 0 mm | - | 684 W/m² | - |
| 1787853962 | 26.67° C | 70% | 1010.3 hPa | 0 mm | - | 678 W/m² | - |
| 1787853656 | 26.11° C | 71% | 1009.9 hPa | 0 mm | - | 689 W/m² | - |
| 1787853356 | 26.67° C | 72% | 1010.1 hPa | 0 mm | - | 696 W/m² | - |
| 1787853050 | 26.11° C | 73% | 1010 hPa | 0 mm | - | 694 W/m² | - |
| 1787852751 | 26.67° C | 73% | 1010 hPa | 0 mm | - | 698 W/m² | - |
| 1787852449 | 26.67° C | 75% | 1010.3 hPa | 0 mm | - | 708 W/m² | - |
| 1787852149 | 26.67° C | 72% | 1010 hPa | 0 mm | - | 715 W/m² | - |
| 1787851844 | 26.67° C | 74% | 1010.1 hPa | 0 mm | - | 714 W/m² | - |
| 1787851543 | 26.11° C | 74% | 1009.9 hPa | 0 mm | - | 739 W/m² | - |
| 1787851238 | 26.67° C | 73% | 1010 hPa | 0 mm | - | 716 W/m² | - |
| 1787850934 | 27.22° C | 72% | 1010.1 hPa | 0 mm | - | 755 W/m² | - |
| 1787850630 | 26.67° C | 72% | 1009.7 hPa | 0 mm | - | 748 W/m² | - |
| 1787850324 | 26.11° C | 75% | 1009.9 hPa | 0 mm | - | 790 W/m² | - |
| 1787850015 | 26.67° C | 74% | 1009.8 hPa | 0 mm | - | 160 W/m² | - |
| 1787849709 | 27.22° C | 70% | 1010.1 hPa | 0 mm | - | 761 W/m² | - |
| 1787849404 | 26.67° C | 71% | 1010 hPa | 0 mm | - | 709 W/m² | - |
| 1787849102 | 27.22° C | 70% | 1009.9 hPa | 0 mm | - | 719 W/m² | - |
| 1787848797 | 26.67° C | 73% | 1010 hPa | 0 mm | - | 723 W/m² | - |
| 1787848496 | 27.78° C | 71% | 1009.8 hPa | 0 mm | - | 726 W/m² | - |
| 1787848191 | 27.78° C | 70% | 1009.8 hPa | 0 mm | - | 706 W/m² | - |
| 1787847891 | 27.22° C | 72% | 1010 hPa | 0 mm | - | 681 W/m² | - |
| 1787847586 | 26.67° C | 74% | 1010 hPa | 0 mm | - | 687 W/m² | - |
| 1787847281 | 26.67° C | 75% | 1010.1 hPa | 0 mm | - | 680 W/m² | - |
* Rain latest hour (hover to see other rain measurements)
** Current wind speed in m/s (hover to see current wind gust speed)